createdAt,value
2023-05-20T00:00:36.446Z,99.90
2023-05-20T00:03:38.341Z,99.90
2023-05-20T00:06:40.265Z,99.90
2023-05-20T00:09:42.159Z,99.90
2023-05-20T00:12:44.196Z,99.90
2023-05-20T00:15:46.027Z,99.90
2023-05-20T00:18:47.812Z,99.90
2023-05-20T00:21:49.568Z,99.90
2023-05-20T00:24:51.367Z,99.90
2023-05-20T00:27:53.190Z,99.90
2023-05-20T00:30:55.022Z,99.90
2023-05-20T00:33:56.743Z,99.90
2023-05-20T00:36:59.092Z,99.90
2023-05-20T00:40:01.043Z,99.90
2023-05-20T00:43:02.826Z,99.90
2023-05-20T00:46:04.871Z,99.90
2023-05-20T00:49:06.811Z,99.90
2023-05-20T00:52:08.932Z,99.90
2023-05-20T00:55:10.899Z,99.90
2023-05-20T00:58:12.895Z,99.90
2023-05-20T01:01:14.804Z,99.90
2023-05-20T01:04:16.746Z,99.90
2023-05-20T01:07:19.671Z,99.90
2023-05-20T01:10:25.327Z,99.90
2023-05-20T01:13:33.813Z,99.90
2023-05-20T01:16:36.469Z,99.90
2023-05-20T01:19:45.464Z,99.90
2023-05-20T01:22:48.691Z,99.90
2023-05-20T01:25:50.403Z,99.90
2023-05-20T01:28:52.458Z,99.90
2023-05-20T01:31:56.995Z,99.90
2023-05-20T01:35:00.260Z,99.90
2023-05-20T01:38:04.212Z,99.90
2023-05-20T01:41:07.255Z,99.90
2023-05-20T01:44:09.844Z,99.90
2023-05-20T01:47:12.054Z,99.90
2023-05-20T01:50:13.842Z,99.90
2023-05-20T01:53:15.780Z,99.90
2023-05-20T01:56:17.546Z,99.90
2023-05-20T01:59:19.405Z,99.90
2023-05-20T02:02:21.233Z,99.90
2023-05-20T02:05:22.996Z,99.90
2023-05-20T02:08:24.764Z,99.90
2023-05-20T02:11:26.596Z,99.90
2023-05-20T02:14:29.597Z,99.90
2023-05-20T02:17:31.664Z,99.90
2023-05-20T02:20:36.526Z,99.90
2023-05-20T02:23:38.239Z,99.90
2023-05-20T02:26:40.017Z,99.90
2023-05-20T02:29:44.224Z,99.90
2023-05-20T02:32:46.730Z,99.90
2023-05-20T02:35:48.575Z,99.90
2023-05-20T02:38:51.100Z,99.90
2023-05-20T02:41:52.824Z,99.90
2023-05-20T02:44:58.354Z,99.90
2023-05-20T02:48:01.114Z,99.90
2023-05-20T02:51:02.991Z,99.90
2023-05-20T02:54:11.453Z,99.90
2023-05-20T02:57:13.471Z,99.90
2023-05-20T03:00:16.428Z,99.90
2023-05-20T03:03:18.554Z,99.90
2023-05-20T03:06:20.459Z,99.90
2023-05-20T03:09:22.274Z,99.90
2023-05-20T03:12:26.180Z,99.90
2023-05-20T03:15:28.101Z,99.90
2023-05-20T03:18:29.996Z,99.90
2023-05-20T03:21:32.451Z,99.90
2023-05-20T03:24:34.687Z,99.90
2023-05-20T03:27:38.003Z,99.90
2023-05-20T03:30:40.952Z,99.90
2023-05-20T03:33:43.047Z,99.90
2023-05-20T03:36:45.082Z,99.90
2023-05-20T03:39:47.089Z,99.90
2023-05-20T03:42:50.964Z,99.90
2023-05-20T03:45:54.659Z,99.90
2023-05-20T03:48:57.875Z,99.90
2023-05-20T03:51:59.742Z,99.90
2023-05-20T03:55:01.992Z,99.90
2023-05-20T03:58:03.975Z,99.90
2023-05-20T04:01:07.745Z,99.90
2023-05-20T04:04:09.680Z,99.90
2023-05-20T04:07:11.872Z,99.90
2023-05-20T04:10:14.012Z,99.90
2023-05-20T04:13:16.416Z,99.90
2023-05-20T04:16:18.577Z,99.90
2023-05-20T04:19:20.452Z,99.90
2023-05-20T04:22:22.733Z,99.90
2023-05-20T04:25:26.053Z,99.90
2023-05-20T04:28:31.745Z,99.90
2023-05-20T04:31:33.677Z,99.90
2023-05-20T04:34:37.339Z,99.90
2023-05-20T04:37:39.438Z,99.90
2023-05-20T04:40:41.895Z,99.90
2023-05-20T04:43:44.047Z,99.90
2023-05-20T04:46:46.117Z,99.90
2023-05-20T04:49:50.330Z,99.90
2023-05-20T04:52:52.204Z,99.90
2023-05-20T04:55:57.333Z,99.90
2023-05-20T04:58:59.873Z,99.90
2023-05-20T05:02:01.778Z,99.90
2023-05-20T05:05:04.148Z,99.90
2023-05-20T05:08:06.979Z,99.90
2023-05-20T05:11:14.240Z,99.90
2023-05-20T05:14:16.766Z,99.90
2023-05-20T05:17:18.680Z,99.90
2023-05-20T05:20:20.972Z,99.90
2023-05-20T05:23:22.778Z,99.90
2023-05-20T05:26:24.692Z,99.90
2023-05-20T05:29:26.526Z,99.90
2023-05-20T05:32:28.628Z,99.90
2023-05-20T05:35:30.480Z,99.90
2023-05-20T05:38:33.008Z,99.90
2023-05-20T05:41:35.095Z,99.90
2023-05-20T05:44:37.275Z,99.90
2023-05-20T05:47:43.057Z,99.90
2023-05-20T05:50:46.384Z,99.90
2023-05-20T05:53:49.983Z,99.90
2023-05-20T05:56:52.496Z,99.90
2023-05-20T05:59:54.884Z,99.90
2023-05-20T06:02:58.274Z,99.90
2023-05-20T06:06:07.724Z,99.90
2023-05-20T06:09:10.082Z,99.90
2023-05-20T06:12:14.008Z,99.90
2023-05-20T06:15:16.708Z,99.90
2023-05-20T06:18:19.094Z,99.90
2023-05-20T06:21:21.557Z,99.90
2023-05-20T06:24:24.613Z,99.90
2023-05-20T06:27:27.740Z,99.90
2023-05-20T06:30:29.661Z,99.90
2023-05-20T06:33:31.691Z,99.90
2023-05-20T06:36:37.538Z,99.90
2023-05-20T06:39:39.970Z,99.90
2023-05-20T06:42:44.202Z,99.90
2023-05-20T06:45:46.131Z,99.90
2023-05-20T06:48:58.468Z,99.90
2023-05-20T06:52:01.146Z,99.90
2023-05-20T06:55:05.229Z,99.90
2023-05-20T06:58:08.957Z,99.90
2023-05-20T07:01:11.390Z,99.90
2023-05-20T07:04:14.553Z,99.90
2023-05-20T07:07:17.457Z,99.90
2023-05-20T07:10:20.639Z,99.90
2023-05-20T07:13:24.180Z,99.90
2023-05-20T07:16:26.572Z,99.90
2023-05-20T07:19:30.596Z,99.90
2023-05-20T07:22:32.574Z,99.90
2023-05-20T07:25:44.288Z,99.90
2023-05-20T07:28:47.137Z,99.90
2023-05-20T07:31:49.219Z,99.90
2023-05-20T07:34:52.197Z,99.90
2023-05-20T07:37:54.198Z,99.90
2023-05-20T07:40:56.944Z,99.90
2023-05-20T07:43:59.284Z,99.90
2023-05-20T07:47:01.590Z,99.90
2023-05-20T07:50:03.599Z,99.90
2023-05-20T07:53:08.657Z,99.90
2023-05-20T07:56:11.020Z,99.90
2023-05-20T07:59:14.194Z,99.90
2023-05-20T08:02:19.651Z,99.90
2023-05-20T08:05:22.790Z,99.90
2023-05-20T08:08:24.760Z,99.90
2023-05-20T08:11:33.979Z,99.90
2023-05-20T08:14:36.161Z,99.90
2023-05-20T08:17:38.908Z,99.90
2023-05-20T08:20:43.797Z,99.90
2023-05-20T08:23:45.829Z,99.90
2023-05-20T08:26:47.589Z,99.90
2023-05-20T08:29:50.956Z,99.90
2023-05-20T08:32:52.802Z,99.90
2023-05-20T08:35:55.579Z,99.90
2023-05-20T08:38:57.585Z,99.90
2023-05-20T08:41:59.569Z,99.90
2023-05-20T08:45:01.893Z,99.90
2023-05-20T08:48:05.464Z,99.90
2023-05-20T08:51:10.712Z,99.90
2023-05-20T08:54:14.810Z,99.90
2023-05-20T08:57:16.826Z,99.90
2023-05-20T09:00:20.263Z,99.90
2023-05-20T09:03:23.869Z,99.90
2023-05-20T09:06:25.717Z,99.90
2023-05-20T09:09:27.470Z,99.90
2023-05-20T09:12:29.264Z,99.90
2023-05-20T09:15:35.637Z,99.90
2023-05-20T09:18:40.843Z,99.90
2023-05-20T09:21:44.475Z,99.90
2023-05-20T09:24:48.586Z,99.90
2023-05-20T09:27:50.627Z,99.90
2023-05-20T09:31:00.204Z,99.90
2023-05-20T09:34:02.791Z,99.90
2023-05-20T09:37:07.302Z,99.90
2023-05-20T09:40:12.313Z,99.90
2023-05-20T09:43:14.256Z,99.90
2023-05-20T09:46:16.826Z,99.90
2023-05-20T09:49:20.533Z,99.90
2023-05-20T09:52:22.879Z,99.90
2023-05-20T09:55:26.076Z,99.90
2023-05-20T09:58:29.503Z,99.90
2023-05-20T10:01:31.876Z,99.90
2023-05-20T10:04:36.079Z,99.90
2023-05-20T10:07:58.969Z,99.90
2023-05-20T10:11:41.344Z,99.90
2023-05-20T10:14:55.060Z,99.90
2023-05-20T10:18:06.173Z,99.90
2023-05-20T10:21:18.827Z,99.90
2023-05-20T10:24:33.315Z,99.90
2023-05-20T10:27:48.171Z,99.90
2023-05-20T10:30:51.062Z,99.90
2023-05-20T10:33:53.958Z,99.90
2023-05-20T10:36:55.828Z,99.90
2023-05-20T10:40:07.119Z,99.90
2023-05-20T10:43:11.380Z,99.90
2023-05-20T10:46:31.799Z,99.90
2023-05-20T10:49:41.629Z,99.90
2023-05-20T10:52:43.445Z,99.90
2023-05-20T10:55:54.596Z,99.90
2023-05-20T10:58:56.357Z,99.90
2023-05-20T11:01:58.546Z,99.90
2023-05-20T11:05:01.326Z,99.90
2023-05-20T11:08:13.722Z,99.90
2023-05-20T11:11:23.231Z,99.90
2023-05-20T11:14:25.373Z,99.90
2023-05-20T11:17:27.280Z,99.90
2023-05-20T11:20:30.232Z,99.90
2023-05-20T11:23:32.070Z,99.30
2023-05-20T11:26:34.520Z,99.50
2023-05-20T11:29:36.935Z,99.90
2023-05-20T11:32:38.820Z,99.30
2023-05-20T11:35:51.958Z,99.40
2023-05-20T11:38:53.738Z,99.90
2023-05-20T11:41:55.704Z,99.80
2023-05-20T11:45:01.297Z,99.90
2023-05-20T11:48:05.235Z,99.70
2023-05-20T11:51:08.878Z,99.90
2023-05-20T11:54:11.333Z,99.20
2023-05-20T11:57:13.274Z,99.30
2023-05-20T12:00:15.146Z,99.20
2023-05-20T12:03:17.452Z,99.10
2023-05-20T12:06:19.676Z,99.70
2023-05-20T12:09:22.433Z,99.40
2023-05-20T12:12:25.459Z,99.30
2023-05-20T12:15:27.299Z,99.90
2023-05-20T12:18:29.208Z,97.40
2023-05-20T12:21:31.517Z,98.60
2023-05-20T12:24:33.364Z,97.70
2023-05-20T12:27:35.208Z,98.00
2023-05-20T12:30:37.317Z,98.30
2023-05-20T12:33:39.147Z,98.30
2023-05-20T12:36:40.942Z,97.70
2023-05-20T12:39:43.311Z,98.10
2023-05-20T12:42:45.271Z,96.90
2023-05-20T12:45:47.266Z,97.10
2023-05-20T12:48:49.141Z,97.10
2023-05-20T12:51:51.131Z,96.50
2023-05-20T12:54:56.918Z,97.30
2023-05-20T12:57:58.731Z,98.20
2023-05-20T13:01:00.605Z,96.50
2023-05-20T13:04:02.422Z,97.70
2023-05-20T13:07:04.691Z,98.10
2023-05-20T13:10:07.591Z,98.20
2023-05-20T13:13:09.439Z,97.90
2023-05-20T13:16:11.939Z,98.20
2023-05-20T13:19:13.927Z,98.30
2023-05-20T13:22:15.839Z,98.70
2023-05-20T13:25:17.928Z,98.60
2023-05-20T13:28:20.837Z,98.80
2023-05-20T13:31:22.860Z,98.20
2023-05-20T13:34:25.096Z,96.50
2023-05-20T13:37:26.870Z,96.70
2023-05-20T13:40:28.751Z,96.80
2023-05-20T13:43:31.947Z,98.90
2023-05-20T13:46:34.029Z,98.90
2023-05-20T13:49:35.886Z,96.60
2023-05-20T13:52:37.776Z,97.00
2023-05-20T13:55:42.673Z,98.70
2023-05-20T13:58:45.377Z,98.00
2023-05-20T14:01:47.349Z,97.90
2023-05-20T14:04:49.199Z,96.30
2023-05-20T14:07:51.125Z,96.60
2023-05-20T14:10:55.876Z,96.50
2023-05-20T14:13:57.773Z,96.90
2023-05-20T14:16:59.780Z,95.80
2023-05-20T14:20:01.727Z,96.40
2023-05-20T14:23:03.608Z,97.00
2023-05-20T14:26:05.481Z,97.30
2023-05-20T14:29:07.336Z,97.20
2023-05-20T14:32:11.467Z,96.50
2023-05-20T14:35:14.197Z,96.20
2023-05-20T14:38:16.772Z,97.90
2023-05-20T14:41:18.663Z,96.80
2023-05-20T14:44:20.823Z,96.50
2023-05-20T14:47:22.729Z,96.60
2023-05-20T14:50:24.662Z,97.00
2023-05-20T14:53:26.529Z,96.50
2023-05-20T14:56:28.353Z,97.30
2023-05-20T14:59:30.085Z,96.60
2023-05-20T15:02:32.070Z,97.50
2023-05-20T15:05:33.821Z,96.70
2023-05-20T15:08:35.662Z,96.70
2023-05-20T15:11:37.457Z,97.90
2023-05-20T15:14:39.287Z,98.00
2023-05-20T15:17:41.292Z,95.50
2023-05-20T15:20:44.520Z,96.70
2023-05-20T15:23:46.729Z,97.20
2023-05-20T15:26:48.634Z,97.10
2023-05-20T15:29:50.486Z,97.60
2023-05-20T15:32:52.389Z,96.70
2023-05-20T15:35:54.243Z,96.70
2023-05-20T15:38:56.026Z,96.30
2023-05-20T15:41:59.690Z,96.90
2023-05-20T15:45:01.652Z,97.10
2023-05-20T15:48:03.649Z,96.00
2023-05-20T15:51:06.012Z,96.50
2023-05-20T15:54:08.097Z,96.30
2023-05-20T15:57:10.173Z,97.20
2023-05-20T16:00:14.493Z,97.30
2023-05-20T16:03:17.765Z,96.60
2023-05-20T16:06:19.627Z,96.80
2023-05-20T16:09:22.069Z,98.10
2023-05-20T16:12:24.095Z,97.60
2023-05-20T16:15:26.810Z,97.40
2023-05-20T16:18:29.599Z,97.80
2023-05-20T16:21:31.617Z,98.30
2023-05-20T16:24:33.468Z,98.40
2023-05-20T16:27:35.395Z,98.50
2023-05-20T16:30:37.369Z,99.00
2023-05-20T16:33:39.298Z,98.70
2023-05-20T16:36:41.203Z,99.80
2023-05-20T16:39:43.191Z,99.10
2023-05-20T16:42:46.267Z,98.80
2023-05-20T16:45:48.310Z,99.40
2023-05-20T16:48:50.173Z,99.60
2023-05-20T16:51:52.294Z,99.80
2023-05-20T16:54:54.234Z,99.90
2023-05-20T16:57:56.071Z,99.90
2023-05-20T17:00:57.934Z,99.90
2023-05-20T17:03:59.806Z,99.90
2023-05-20T17:07:01.724Z,99.90
2023-05-20T17:10:03.837Z,99.90
2023-05-20T17:13:05.820Z,99.90
2023-05-20T17:16:09.899Z,99.90
2023-05-20T17:19:12.103Z,99.90
2023-05-20T17:22:14.065Z,99.90
2023-05-20T17:25:16.869Z,99.90
2023-05-20T17:28:18.714Z,99.90
2023-05-20T17:31:20.706Z,99.90
2023-05-20T17:34:22.574Z,99.90
2023-05-20T17:37:24.489Z,99.90
2023-05-20T17:40:26.383Z,99.90
2023-05-20T17:43:28.269Z,99.90
2023-05-20T17:46:30.151Z,99.90
2023-05-20T17:49:31.963Z,99.90
2023-05-20T17:52:33.780Z,99.90
2023-05-20T17:55:36.583Z,99.90
2023-05-20T17:58:38.725Z,99.90
2023-05-20T18:01:41.647Z,99.90
2023-05-20T18:04:43.538Z,99.90
2023-05-20T18:07:45.966Z,99.90
2023-05-20T18:10:47.943Z,99.90
2023-05-20T18:13:49.742Z,99.90
2023-05-20T18:16:51.641Z,99.90
2023-05-20T18:19:53.914Z,99.90
2023-05-20T18:22:58.529Z,99.90
2023-05-20T18:26:00.616Z,99.90
2023-05-20T18:29:02.374Z,99.90
2023-05-20T18:32:04.611Z,99.90
2023-05-20T18:35:07.083Z,99.90
2023-05-20T18:38:08.852Z,99.90
2023-05-20T18:41:10.845Z,99.90
2023-05-20T18:44:12.692Z,99.90
2023-05-20T18:47:15.141Z,99.90
2023-05-20T18:50:17.018Z,99.90
2023-05-20T18:53:19.299Z,99.90
2023-05-20T18:56:21.597Z,99.90
2023-05-20T18:59:25.156Z,99.90
2023-05-20T19:02:27.141Z,99.90
2023-05-20T19:05:29.968Z,99.90
2023-05-20T19:08:32.392Z,99.90
2023-05-20T19:11:34.177Z,99.90
2023-05-20T19:14:36.187Z,99.90
2023-05-20T19:17:38.226Z,99.90
2023-05-20T19:20:40.105Z,99.90
2023-05-20T19:23:42.112Z,99.90
2023-05-20T19:26:44.529Z,99.90
2023-05-20T19:29:46.398Z,99.90
2023-05-20T19:32:48.239Z,99.90
2023-05-20T19:35:50.145Z,99.90
2023-05-20T19:38:51.952Z,99.90
2023-05-20T19:41:53.991Z,99.90
2023-05-20T19:44:56.383Z,99.90
2023-05-20T19:47:58.693Z,99.90
2023-05-20T19:51:00.696Z,99.90
2023-05-20T19:54:02.496Z,99.90
2023-05-20T19:57:04.486Z,99.90
2023-05-20T20:00:07.241Z,99.90
2023-05-20T20:03:14.726Z,99.90
2023-05-20T20:06:16.617Z,99.90
2023-05-20T20:09:18.439Z,99.90
2023-05-20T20:12:20.281Z,99.90
2023-05-20T20:15:22.146Z,99.90
2023-05-20T20:18:24.291Z,99.90
2023-05-20T20:21:26.349Z,99.90
2023-05-20T20:24:28.180Z,99.90
2023-05-20T20:27:30.046Z,99.90
2023-05-20T20:30:31.946Z,99.90
2023-05-20T20:33:33.779Z,99.90
2023-05-20T20:36:35.699Z,99.90
2023-05-20T20:39:37.512Z,99.90
2023-05-20T20:42:45.149Z,99.90
2023-05-20T20:45:47.133Z,99.90
2023-05-20T20:48:50.214Z,99.90
2023-05-20T20:51:53.182Z,99.90
2023-05-20T20:54:57.022Z,99.90
2023-05-20T20:58:02.603Z,99.90
2023-05-20T21:01:05.696Z,99.90
2023-05-20T21:04:13.919Z,99.90
2023-05-20T21:07:18.915Z,99.90
2023-05-20T21:10:21.188Z,99.90
2023-05-20T21:13:22.979Z,99.90
2023-05-20T21:16:24.937Z,99.90
2023-05-20T21:19:26.866Z,99.90
2023-05-20T21:22:28.767Z,99.90
2023-05-20T21:25:30.616Z,99.90
2023-05-20T21:28:32.447Z,99.90
2023-05-20T21:31:34.309Z,99.90
2023-05-20T21:34:36.212Z,99.90
2023-05-20T21:37:38.082Z,99.90
2023-05-20T21:40:41.384Z,99.90
2023-05-20T21:43:43.182Z,99.90
2023-05-20T21:46:45.093Z,99.90
2023-05-20T21:49:48.129Z,99.90
2023-05-20T21:52:49.984Z,99.90
2023-05-20T21:55:51.955Z,99.90
2023-05-20T21:58:53.746Z,99.90
2023-05-20T22:01:57.973Z,99.90
2023-05-20T22:05:00.382Z,99.90
2023-05-20T22:08:02.243Z,99.90
2023-05-20T22:11:05.517Z,99.90
2023-05-20T22:14:07.609Z,99.90
2023-05-20T22:17:10.490Z,99.90
2023-05-20T22:20:13.118Z,99.90
2023-05-20T22:23:15.730Z,99.90
2023-05-20T22:26:19.694Z,99.90
2023-05-20T22:29:22.284Z,99.90
2023-05-20T22:32:24.210Z,99.90
2023-05-20T22:35:26.181Z,99.90
2023-05-20T22:38:29.578Z,99.90
2023-05-20T22:41:31.455Z,99.90
2023-05-20T22:44:33.307Z,99.90
2023-05-20T22:47:35.525Z,99.90
2023-05-20T22:50:37.346Z,99.90
2023-05-20T22:53:39.181Z,99.90
2023-05-20T22:56:41.061Z,99.90
2023-05-20T22:59:42.940Z,99.90
2023-05-20T23:02:49.580Z,99.90
2023-05-20T23:05:51.668Z,99.90
2023-05-20T23:08:53.516Z,99.90
2023-05-20T23:11:55.368Z,99.90
2023-05-20T23:14:57.160Z,99.90
2023-05-20T23:17:59.026Z,99.90
2023-05-20T23:21:00.921Z,99.90
2023-05-20T23:24:03.366Z,99.90
2023-05-20T23:27:06.245Z,99.90
2023-05-20T23:30:08.794Z,99.90
2023-05-20T23:33:10.846Z,99.90
2023-05-20T23:36:12.721Z,99.90
2023-05-20T23:39:16.223Z,99.90
2023-05-20T23:42:19.956Z,99.90
2023-05-20T23:45:21.794Z,99.90
2023-05-20T23:48:26.359Z,99.90
2023-05-20T23:51:28.187Z,99.90
2023-05-20T23:54:34.272Z,99.90
2023-05-20T23:57:36.205Z,99.90
